WetterOnline ( https://www.wetteronline.de )

Wetter aktuell Balingen

Aktuelles Wetter: Messstetten (900m)

6-stündlich | Neueste Meldungen
Ortszeit Temperatur Wetter
Di, 28.09. 2:00 12.0° C bedeckt
Mo, 27.09. 20:00 13.0° C bewölkt
Mo, 27.09. 14:00 17.2° C bewölkt
Mo, 27.09. 8:00 7.4° C Nebel
Mo, 27.09. 2:00 11.2° C bedeckt
So, 26.09. 20:00 12.9° C bedeckt
So, 26.09. 14:00 16.4° C bedeckt
So, 26.09. 8:00 12.1° C bewölkt
Ortszeit Temperatur Wetter
Di, 28.09. 3:00 10.1° C Sprühregen
Di, 28.09. 2:50 10.1° C Sprühregen
Di, 28.09. 2:40 10.2° C Sprühregen
Di, 28.09. 2:30 10.7° C leichter Regen
Di, 28.09. 2:20 10.7° C leichter Regen
Di, 28.09. 2:10 11.0° C Sprühregen
Di, 28.09. 2:00 12.0° C bedeckt
Di, 28.09. 1:30 12.7° C bedeckt
Di, 28.09. 1:00 10.4° C wolkig
Di, 28.09. 0:30 10.8° C leicht bewölkt
Di, 28.09. 0:00 12.3° C wolkig
Ortszeit Relative Feuchte Sichtweite
Di, 28.09. 2:00 91% 55 km
Mo, 27.09. 20:00 92% 16 km
Mo, 27.09. 14:00 66% 65 km
Mo, 27.09. 8:00 100% 0.6 km
Mo, 27.09. 2:00 98% 7 km
So, 26.09. 20:00 97% 5.0 km
So, 26.09. 14:00 80% 40 km
So, 26.09. 8:00 97% 17 km
Ortszeit Relative Feuchte Sichtweite
Di, 28.09. 3:00 95% 4.6 km
Di, 28.09. 2:50 95% -
Di, 28.09. 2:40 95% -
Di, 28.09. 2:30 92% 18 km
Di, 28.09. 2:20 92% -
Di, 28.09. 2:10 93% -
Di, 28.09. 2:00 91% 55 km
Di, 28.09. 1:30 93% 40 km
Di, 28.09. 1:00 95% 26 km
Di, 28.09. 0:30 92% 30 km
Di, 28.09. 0:00 89% 50 km
Ortszeit Niederschlagsmenge Niederschlagsart
Di, 28.09. 2:00 0.1 l/m2 in 6 Std. Regen
Mo, 27.09. 20:00 0.0 l/m2 in 12 Std. -
Mo, 27.09. 14:00 0.0 l/m2 in 6 Std. -
Mo, 27.09. 8:00 0.1 l/m2 in 12 Std. -
Mo, 27.09. 2:00 0.1 l/m2 in 6 Std. Regen
So, 26.09. 20:00 8 l/m2 in 12 Std. Regen
So, 26.09. 14:00 8 l/m2 in 6 Std. Regen
So, 26.09. 8:00 0.1 l/m2 in 12 Std. Regen
Ortszeit Niederschlagsmenge Niederschlagsart
Di, 28.09. 3:00 0.2 l/m2 in 1 Std. Regen
Di, 28.09. 2:50 keine Meldung -
Di, 28.09. 2:40 keine Meldung -
Di, 28.09. 2:30 0.1 l/m2 in 1 Std. -
Di, 28.09. 2:20 keine Meldung -
Di, 28.09. 2:10 keine Meldung -
Di, 28.09. 2:00 0.0 l/m2 in 1 Std. Regen
Di, 28.09. 1:30 0.0 l/m2 in 1 Std. -
Di, 28.09. 1:00 0.0 l/m2 in 1 Std. -
Di, 28.09. 0:30 0.0 l/m2 in 1 Std. -
Di, 28.09. 0:00 0.1 l/m2 in 1 Std. Sprühregen
Ortszeit Stärke Spitze Richtung
km/h Bft. km/h Grad Sektor
Di, 28.09. 2:00 14 3 29 290° W
Mo, 27.09. 20:00 0 0 18 - -
Mo, 27.09. 14:00 7 2 22 220° SW
Mo, 27.09. 8:00 4 1 11 120° SO
Mo, 27.09. 2:00 2 1 9 120° SO
So, 26.09. 20:00 0 0 22 - -
So, 26.09. 14:00 9 2 44 220° SW
So, 26.09. 8:00 4 1 14 70° O
Ortszeit Stärke Spitze Richtung
km/h Bft. km/h Grad Sektor
Di, 28.09. 3:00 9 2 28 300° NW
Di, 28.09. 2:50 9 2 - 300° NW
Di, 28.09. 2:40 13 3 - 300° NW
Di, 28.09. 2:30 17 3 28 290° W
Di, 28.09. 2:20 17 3 - 290° W
Di, 28.09. 2:10 14 3 - 300° NW
Di, 28.09. 2:00 14 3 29 290° W
Di, 28.09. 1:30 7 2 11 280° W
Di, 28.09. 1:00 4 1 11 290° W
Di, 28.09. 0:30 4 1 11 240° SW
Di, 28.09. 0:00 4 1 7 260° W
Ortszeit Untergrenze Bedeckung Gattung
total tief tief mittel hoch
Di, 28.09. 2:00 240 m 8/8 8/8 - - -
Mo, 27.09. 20:00 2700 m 7/8 7/8 - - -
Mo, 27.09. 14:00 5400 m 8/8 7/8 - - -
Mo, 27.09. 8:00 <30 m 1/8 0/8 - - -
Mo, 27.09. 2:00 1200 m 8/8 8/8 - - -
So, 26.09. 20:00 3600 m 8/8 8/8 - - -
So, 26.09. 14:00 3000 m 8/8 8/8 - - -
So, 26.09. 8:00 6600 m 7/8 8/8 - - -
Ortszeit Bedeckungsgrad in Achtel und Wolkenuntergrenze
Di, 28.09. 3:00 7(180m) 7(330m) 8(600m)
Di, 28.09. 2:50 7(180m) 7(330m) 8(600m)
Di, 28.09. 2:40 6(180m) 7(330m) 8(540m)
Di, 28.09. 2:30 7(210m)
Di, 28.09. 2:20 7(210m)
Di, 28.09. 2:10 7(210m)
Di, 28.09. 2:00 5(240m) 5(330m) 8(510m)
Di, 28.09. 1:30 4(660m) 8(1020m) 8(990m)
Di, 28.09. 1:00 2(1050m) 6(3000m)
Di, 28.09. 0:30 3(2400m) 4(3000m)
Di, 28.09. 0:00 5(2700m)
Ortszeit Stationsdruck (hPa) Tendenz (hPa in 3 Std.)
Di, 28.09. 2:00 920 + 1,4
Mo, 27.09. 20:00 918 + 1,0
Mo, 27.09. 14:00 916 - 0,2
Mo, 27.09. 8:00 917 0,0
Mo, 27.09. 2:00 917 - 0,1
So, 26.09. 20:00 917 + 0,4
So, 26.09. 14:00 917 - 0,9
So, 26.09. 8:00 915 - 0,7
Ortszeit Stationsdruck (hPa) Tendenz (hPa in 3 Std.)
Di, 28.09. 3:00 920 + 1,5
Di, 28.09. 2:50 920 keine Meldung
Di, 28.09. 2:40 920 keine Meldung
Di, 28.09. 2:30 920 + 1,7
Di, 28.09. 2:20 920 keine Meldung
Di, 28.09. 2:10 920 keine Meldung
Di, 28.09. 2:00 920 + 1,4
Di, 28.09. 1:30 919 + 0,9
Di, 28.09. 1:00 919 + 0,8
Di, 28.09. 0:30 919 + 0,8
Di, 28.09. 0:00 919 + 0,9
Ortszeit Schneehöhe (cm)
Di, 28.09. 2:00 0
Mo, 27.09. 20:00 0
Mo, 27.09. 14:00 0
Mo, 27.09. 8:00 0
Mo, 27.09. 2:00 0
So, 26.09. 20:00 0
So, 26.09. 14:00 0
So, 26.09. 8:00 0
Ortszeit Schneehöhe (cm)
Di, 28.09. 3:00 0
Di, 28.09. 2:50 0
Di, 28.09. 2:40 0
Di, 28.09. 2:30 0
Di, 28.09. 2:20 0
Di, 28.09. 2:10 0
Di, 28.09. 2:00 0
Di, 28.09. 1:30 0
Di, 28.09. 1:00 0
Di, 28.09. 0:30 0
Di, 28.09. 0:00 0
Link zu dieser Seite / Seite empfehlen

Das Wetter in ...